sensor_id;sensor_type;location;lat;lon;timestamp;temperature;humidity
12335;DHT22;6233;51.560;9.986;2022-12-18T00:00:07;-3.60;99.90
12335;DHT22;6233;51.560;9.986;2022-12-18T00:03:09;-3.60;99.90
12335;DHT22;6233;51.560;9.986;2022-12-18T00:06:11;-3.70;99.90
12335;DHT22;6233;51.560;9.986;2022-12-18T00:09:15;-3.70;99.90
12335;DHT22;6233;51.560;9.986;2022-12-18T00:12:17;-3.80;99.90
12335;DHT22;6233;51.560;9.986;2022-12-18T00:15:19;-3.90;99.90
12335;DHT22;6233;51.560;9.986;2022-12-18T00:18:21;-3.90;99.90
12335;DHT22;6233;51.560;9.986;2022-12-18T00:21:23;-4.00;99.90
12335;DHT22;6233;51.560;9.986;2022-12-18T00:24:24;-4.00;99.90
12335;DHT22;6233;51.560;9.986;2022-12-18T00:27:26;-4.10;99.90
12335;DHT22;6233;51.560;9.986;2022-12-18T00:30:28;-4.00;99.90
12335;DHT22;6233;51.560;9.986;2022-12-18T00:33:30;-4.10;99.90
12335;DHT22;6233;51.560;9.986;2022-12-18T00:36:34;-4.10;99.90
12335;DHT22;6233;51.560;9.986;2022-12-18T00:39:36;-4.10;99.90
12335;DHT22;6233;51.560;9.986;2022-12-18T00:42:38;-4.10;99.90
12335;DHT22;6233;51.560;9.986;2022-12-18T00:45:57;-4.20;99.90
12335;DHT22;6233;51.560;9.986;2022-12-18T00:48:59;-4.20;99.90
12335;DHT22;6233;51.560;9.986;2022-12-18T00:52:01;-4.20;99.90
12335;DHT22;6233;51.560;9.986;2022-12-18T00:55:03;-4.20;99.90
12335;DHT22;6233;51.560;9.986;2022-12-18T00:58:08;-4.30;99.90
12335;DHT22;6233;51.560;9.986;2022-12-18T01:01:10;-4.30;99.90
12335;DHT22;6233;51.560;9.986;2022-12-18T01:04:11;-4.20;99.90
12335;DHT22;6233;51.560;9.986;2022-12-18T01:07:13;-4.20;99.90
12335;DHT22;6233;51.560;9.986;2022-12-18T01:10:15;-4.20;99.90
12335;DHT22;6233;51.560;9.986;2022-12-18T01:13:17;-4.30;99.90
12335;DHT22;6233;51.560;9.986;2022-12-18T01:16:19;-4.20;99.90
12335;DHT22;6233;51.560;9.986;2022-12-18T01:19:22;-4.20;99.90
12335;DHT22;6233;51.560;9.986;2022-12-18T01:22:25;-4.20;99.90
12335;DHT22;6233;51.560;9.986;2022-12-18T01:25:29;-4.20;99.90
12335;DHT22;6233;51.560;9.986;2022-12-18T01:28:31;-4.30;99.90
12335;DHT22;6233;51.560;9.986;2022-12-18T01:31:33;-4.30;99.90
12335;DHT22;6233;51.560;9.986;2022-12-18T01:34:36;-4.30;99.90
12335;DHT22;6233;51.560;9.986;2022-12-18T01:37:38;-4.30;99.90
12335;DHT22;6233;51.560;9.986;2022-12-18T01:40:40;-4.30;99.90
12335;DHT22;6233;51.560;9.986;2022-12-18T01:43:54;-4.20;99.90
12335;DHT22;6233;51.560;9.986;2022-12-18T01:46:56;-4.20;99.90
12335;DHT22;6233;51.560;9.986;2022-12-18T01:49:59;-4.10;99.90
12335;DHT22;6233;51.560;9.986;2022-12-18T01:56:18;-4.20;99.90
12335;DHT22;6233;51.560;9.986;2022-12-18T01:59:21;-4.20;99.90
12335;DHT22;6233;51.560;9.986;2022-12-18T02:02:23;-4.30;99.90
12335;DHT22;6233;51.560;9.986;2022-12-18T02:05:46;-4.30;99.90
12335;DHT22;6233;51.560;9.986;2022-12-18T02:09:10;-4.30;99.90
12335;DHT22;6233;51.560;9.986;2022-12-18T02:12:16;-4.30;99.90
12335;DHT22;6233;51.560;9.986;2022-12-18T02:18:38;-4.20;99.90
12335;DHT22;6233;51.560;9.986;2022-12-18T02:22:06;-4.30;99.90
12335;DHT22;6233;51.560;9.986;2022-12-18T02:25:40;-4.30;99.90
12335;DHT22;6233;51.560;9.986;2022-12-18T02:31:56;-4.40;99.90
12335;DHT22;6233;51.560;9.986;2022-12-18T02:34:59;-4.40;99.90
12335;DHT22;6233;51.560;9.986;2022-12-18T02:38:03;-4.40;99.90
12335;DHT22;6233;51.560;9.986;2022-12-18T02:41:06;-4.40;99.90
12335;DHT22;6233;51.560;9.986;2022-12-18T02:44:12;-4.40;99.90
12335;DHT22;6233;51.560;9.986;2022-12-18T02:47:17;-4.40;99.90
12335;DHT22;6233;51.560;9.986;2022-12-18T02:54:02;-4.40;99.90
12335;DHT22;6233;51.560;9.986;2022-12-18T02:57:16;-4.40;99.90
12335;DHT22;6233;51.560;9.986;2022-12-18T03:03:56;-4.40;99.90
12335;DHT22;6233;51.560;9.986;2022-12-18T03:07:02;-4.50;99.90
12335;DHT22;6233;51.560;9.986;2022-12-18T03:10:08;-4.60;99.90
12335;DHT22;6233;51.560;9.986;2022-12-18T03:13:26;-4.60;99.90
12335;DHT22;6233;51.560;9.986;2022-12-18T03:16:31;-4.70;99.90
12335;DHT22;6233;51.560;9.986;2022-12-18T03:19:35;-4.60;99.90
12335;DHT22;6233;51.560;9.986;2022-12-18T03:22:38;-4.60;99.90
12335;DHT22;6233;51.560;9.986;2022-12-18T03:25:43;-4.50;99.90
12335;DHT22;6233;51.560;9.986;2022-12-18T03:28:52;-4.50;99.90
12335;DHT22;6233;51.560;9.986;2022-12-18T03:32:00;-4.70;99.90
12335;DHT22;6233;51.560;9.986;2022-12-18T03:35:05;-4.70;99.90
12335;DHT22;6233;51.560;9.986;2022-12-18T03:38:08;-4.90;99.90
12335;DHT22;6233;51.560;9.986;2022-12-18T03:41:43;-4.90;99.90
12335;DHT22;6233;51.560;9.986;2022-12-18T03:45:30;-4.90;99.90
12335;DHT22;6233;51.560;9.986;2022-12-18T03:48:32;-4.90;99.90
12335;DHT22;6233;51.560;9.986;2022-12-18T03:52:36;-4.90;99.90
12335;DHT22;6233;51.560;9.986;2022-12-18T03:55:16;-5.00;99.90
12335;DHT22;6233;51.560;9.986;2022-12-18T03:58:21;-5.10;99.90
12335;DHT22;6233;51.560;9.986;2022-12-18T04:01:37;-5.10;99.90
12335;DHT22;6233;51.560;9.986;2022-12-18T04:04:40;-5.00;99.90
12335;DHT22;6233;51.560;9.986;2022-12-18T04:07:45;-5.00;99.90
12335;DHT22;6233;51.560;9.986;2022-12-18T04:10:48;-5.10;99.90
12335;DHT22;6233;51.560;9.986;2022-12-18T04:13:49;-5.00;99.90
12335;DHT22;6233;51.560;9.986;2022-12-18T04:16:51;-5.00;99.90
12335;DHT22;6233;51.560;9.986;2022-12-18T04:19:53;-5.00;99.90
12335;DHT22;6233;51.560;9.986;2022-12-18T04:22:55;-5.00;99.90
12335;DHT22;6233;51.560;9.986;2022-12-18T04:25:56;-5.00;99.90
12335;DHT22;6233;51.560;9.986;2022-12-18T04:28:58;-5.00;99.90
12335;DHT22;6233;51.560;9.986;2022-12-18T04:32:00;-4.90;99.90
12335;DHT22;6233;51.560;9.986;2022-12-18T04:35:02;-5.00;99.90
12335;DHT22;6233;51.560;9.986;2022-12-18T04:38:06;-5.10;99.90
12335;DHT22;6233;51.560;9.986;2022-12-18T04:41:09;-5.10;99.90
12335;DHT22;6233;51.560;9.986;2022-12-18T04:44:11;-5.20;99.90
12335;DHT22;6233;51.560;9.986;2022-12-18T04:47:13;-5.10;99.90
12335;DHT22;6233;51.560;9.986;2022-12-18T04:50:14;-5.10;99.90
12335;DHT22;6233;51.560;9.986;2022-12-18T04:53:16;-5.00;99.90
12335;DHT22;6233;51.560;9.986;2022-12-18T04:56:18;-4.90;99.90
12335;DHT22;6233;51.560;9.986;2022-12-18T04:59:19;-4.90;99.90
12335;DHT22;6233;51.560;9.986;2022-12-18T05:02:21;-4.80;99.90
12335;DHT22;6233;51.560;9.986;2022-12-18T05:05:23;-4.70;99.90
12335;DHT22;6233;51.560;9.986;2022-12-18T05:08:25;-4.70;99.90
12335;DHT22;6233;51.560;9.986;2022-12-18T05:11:27;-4.80;99.90
12335;DHT22;6233;51.560;9.986;2022-12-18T05:14:29;-4.80;99.90
12335;DHT22;6233;51.560;9.986;2022-12-18T05:17:31;-4.70;99.90
12335;DHT22;6233;51.560;9.986;2022-12-18T05:20:32;-4.70;99.90
12335;DHT22;6233;51.560;9.986;2022-12-18T05:23:34;-4.60;99.90
12335;DHT22;6233;51.560;9.986;2022-12-18T05:26:36;-4.60;99.90
12335;DHT22;6233;51.560;9.986;2022-12-18T05:29:38;-4.60;99.90
12335;DHT22;6233;51.560;9.986;2022-12-18T05:32:40;-4.60;99.90
12335;DHT22;6233;51.560;9.986;2022-12-18T05:35:42;-4.60;99.90
12335;DHT22;6233;51.560;9.986;2022-12-18T05:38:44;-4.60;99.90
12335;DHT22;6233;51.560;9.986;2022-12-18T05:41:46;-4.60;99.90
12335;DHT22;6233;51.560;9.986;2022-12-18T05:44:47;-4.60;99.90
12335;DHT22;6233;51.560;9.986;2022-12-18T05:47:49;-4.60;99.90
12335;DHT22;6233;51.560;9.986;2022-12-18T05:50:51;-4.50;99.90
12335;DHT22;6233;51.560;9.986;2022-12-18T05:53:53;-4.40;99.90
12335;DHT22;6233;51.560;9.986;2022-12-18T05:56:55;-4.40;99.90
12335;DHT22;6233;51.560;9.986;2022-12-18T05:59:56;-4.40;99.90
12335;DHT22;6233;51.560;9.986;2022-12-18T06:02:58;-4.40;99.90
12335;DHT22;6233;51.560;9.986;2022-12-18T06:06:00;-4.30;99.90
12335;DHT22;6233;51.560;9.986;2022-12-18T06:09:02;-4.30;99.90
12335;DHT22;6233;51.560;9.986;2022-12-18T06:12:09;-4.30;99.90
12335;DHT22;6233;51.560;9.986;2022-12-18T06:15:12;-4.20;99.90
12335;DHT22;6233;51.560;9.986;2022-12-18T06:18:14;-4.20;99.90
12335;DHT22;6233;51.560;9.986;2022-12-18T06:21:16;-4.20;99.90
12335;DHT22;6233;51.560;9.986;2022-12-18T06:24:18;-4.30;99.90
12335;DHT22;6233;51.560;9.986;2022-12-18T06:27:19;-4.30;99.90
12335;DHT22;6233;51.560;9.986;2022-12-18T06:30:21;-4.30;99.90
12335;DHT22;6233;51.560;9.986;2022-12-18T06:33:26;-4.30;99.90
12335;DHT22;6233;51.560;9.986;2022-12-18T06:36:29;-4.30;99.90
12335;DHT22;6233;51.560;9.986;2022-12-18T06:39:31;-4.20;99.90
12335;DHT22;6233;51.560;9.986;2022-12-18T06:42:33;-4.10;99.90
12335;DHT22;6233;51.560;9.986;2022-12-18T06:45:35;-4.00;99.90
12335;DHT22;6233;51.560;9.986;2022-12-18T06:48:37;-4.00;99.90
12335;DHT22;6233;51.560;9.986;2022-12-18T06:51:38;-3.90;99.90
12335;DHT22;6233;51.560;9.986;2022-12-18T06:54:40;-3.90;99.90
12335;DHT22;6233;51.560;9.986;2022-12-18T06:57:42;-4.00;99.90
12335;DHT22;6233;51.560;9.986;2022-12-18T07:00:44;-4.00;99.90
12335;DHT22;6233;51.560;9.986;2022-12-18T07:03:46;-4.00;99.90
12335;DHT22;6233;51.560;9.986;2022-12-18T07:06:48;-4.00;99.90
12335;DHT22;6233;51.560;9.986;2022-12-18T07:09:51;-4.00;99.90
12335;DHT22;6233;51.560;9.986;2022-12-18T07:12:52;-4.00;99.90
12335;DHT22;6233;51.560;9.986;2022-12-18T07:15:54;-4.00;99.90
12335;DHT22;6233;51.560;9.986;2022-12-18T07:18:56;-4.00;99.90
12335;DHT22;6233;51.560;9.986;2022-12-18T07:21:58;-4.10;99.90
12335;DHT22;6233;51.560;9.986;2022-12-18T07:24:59;-4.20;99.90
12335;DHT22;6233;51.560;9.986;2022-12-18T07:28:02;-4.30;99.90
12335;DHT22;6233;51.560;9.986;2022-12-18T07:31:08;-4.40;99.90
12335;DHT22;6233;51.560;9.986;2022-12-18T07:34:15;-4.40;99.90
12335;DHT22;6233;51.560;9.986;2022-12-18T07:37:17;-4.40;99.90
12335;DHT22;6233;51.560;9.986;2022-12-18T07:40:19;-4.40;99.90
12335;DHT22;6233;51.560;9.986;2022-12-18T07:43:23;-4.40;99.90
12335;DHT22;6233;51.560;9.986;2022-12-18T07:46:25;-4.40;99.90
12335;DHT22;6233;51.560;9.986;2022-12-18T07:49:27;-4.30;99.90
12335;DHT22;6233;51.560;9.986;2022-12-18T07:52:29;-4.10;99.90
12335;DHT22;6233;51.560;9.986;2022-12-18T07:55:31;-4.00;99.90
12335;DHT22;6233;51.560;9.986;2022-12-18T07:58:53;-3.80;99.90
12335;DHT22;6233;51.560;9.986;2022-12-18T08:01:55;-3.60;99.90
12335;DHT22;6233;51.560;9.986;2022-12-18T08:04:57;-3.50;99.90
12335;DHT22;6233;51.560;9.986;2022-12-18T08:07:59;-3.40;99.90
12335;DHT22;6233;51.560;9.986;2022-12-18T08:11:01;-3.40;99.90
12335;DHT22;6233;51.560;9.986;2022-12-18T08:14:03;-3.30;99.90
12335;DHT22;6233;51.560;9.986;2022-12-18T08:17:05;-3.20;99.90
12335;DHT22;6233;51.560;9.986;2022-12-18T08:20:07;-3.10;99.90
12335;DHT22;6233;51.560;9.986;2022-12-18T08:23:09;-2.80;99.90
12335;DHT22;6233;51.560;9.986;2022-12-18T08:26:11;-2.80;99.90
12335;DHT22;6233;51.560;9.986;2022-12-18T08:29:13;-2.70;99.90
12335;DHT22;6233;51.560;9.986;2022-12-18T08:32:22;-2.60;99.90
12335;DHT22;6233;51.560;9.986;2022-12-18T08:35:29;-2.50;99.90
12335;DHT22;6233;51.560;9.986;2022-12-18T08:38:38;-2.40;99.90
12335;DHT22;6233;51.560;9.986;2022-12-18T08:41:40;-2.40;99.90
12335;DHT22;6233;51.560;9.986;2022-12-18T08:44:41;-2.20;99.90
12335;DHT22;6233;51.560;9.986;2022-12-18T08:51:44;-2.10;99.90
12335;DHT22;6233;51.560;9.986;2022-12-18T08:54:46;-1.90;99.90
12335;DHT22;6233;51.560;9.986;2022-12-18T08:57:51;-1.80;99.90
12335;DHT22;6233;51.560;9.986;2022-12-18T09:00:53;-1.40;99.90
12335;DHT22;6233;51.560;9.986;2022-12-18T09:04:03;-1.30;99.90
12335;DHT22;6233;51.560;9.986;2022-12-18T09:07:08;-1.00;99.90
12335;DHT22;6233;51.560;9.986;2022-12-18T09:10:13;-0.80;99.90
12335;DHT22;6233;51.560;9.986;2022-12-18T09:13:16;-0.50;99.90
12335;DHT22;6233;51.560;9.986;2022-12-18T09:16:18;-0.20;99.90
12335;DHT22;6233;51.560;9.986;2022-12-18T09:19:21;0.00;99.90
12335;DHT22;6233;51.560;9.986;2022-12-18T09:22:22;0.20;99.90
12335;DHT22;6233;51.560;9.986;2022-12-18T09:25:24;0.20;99.90
12335;DHT22;6233;51.560;9.986;2022-12-18T09:28:26;0.20;99.90
12335;DHT22;6233;51.560;9.986;2022-12-18T09:31:28;0.10;99.90
12335;DHT22;6233;51.560;9.986;2022-12-18T09:34:30;0.10;99.90
12335;DHT22;6233;51.560;9.986;2022-12-18T09:37:32;-0.10;99.90
12335;DHT22;6233;51.560;9.986;2022-12-18T09:40:43;0.00;99.90
12335;DHT22;6233;51.560;9.986;2022-12-18T09:43:51;0.10;99.90
12335;DHT22;6233;51.560;9.986;2022-12-18T09:50:33;0.50;99.90
12335;DHT22;6233;51.560;9.986;2022-12-18T09:53:38;0.70;99.90
12335;DHT22;6233;51.560;9.986;2022-12-18T09:56:43;0.80;99.90
12335;DHT22;6233;51.560;9.986;2022-12-18T09:59:56;0.90;99.90
12335;DHT22;6233;51.560;9.986;2022-12-18T10:03:08;0.70;99.90
12335;DHT22;6233;51.560;9.986;2022-12-18T10:06:18;0.70;99.90
12335;DHT22;6233;51.560;9.986;2022-12-18T10:19:57;0.60;99.90
12335;DHT22;6233;51.560;9.986;2022-12-18T10:23:13;0.40;99.90
12335;DHT22;6233;51.560;9.986;2022-12-18T10:26:19;0.30;99.90
12335;DHT22;6233;51.560;9.986;2022-12-18T10:29:22;0.30;99.90
12335;DHT22;6233;51.560;9.986;2022-12-18T10:32:28;0.30;99.90
12335;DHT22;6233;51.560;9.986;2022-12-18T10:35:30;0.40;99.90
12335;DHT22;6233;51.560;9.986;2022-12-18T10:38:32;0.40;99.90
12335;DHT22;6233;51.560;9.986;2022-12-18T10:41:34;0.40;99.90
12335;DHT22;6233;51.560;9.986;2022-12-18T10:44:36;0.50;99.90
12335;DHT22;6233;51.560;9.986;2022-12-18T10:47:43;0.50;99.90
12335;DHT22;6233;51.560;9.986;2022-12-18T10:50:49;0.50;99.90
12335;DHT22;6233;51.560;9.986;2022-12-18T10:54:16;0.60;99.90
12335;DHT22;6233;51.560;9.986;2022-12-18T10:57:37;0.70;99.90
12335;DHT22;6233;51.560;9.986;2022-12-18T11:00:39;0.80;99.90
12335;DHT22;6233;51.560;9.986;2022-12-18T11:07:04;0.80;99.90
12335;DHT22;6233;51.560;9.986;2022-12-18T11:10:18;0.70;99.90
12335;DHT22;6233;51.560;9.986;2022-12-18T11:13:25;0.60;99.90
12335;DHT22;6233;51.560;9.986;2022-12-18T11:16:29;0.60;99.90
12335;DHT22;6233;51.560;9.986;2022-12-18T11:19:37;0.50;99.90
12335;DHT22;6233;51.560;9.986;2022-12-18T11:22:41;0.50;99.90
12335;DHT22;6233;51.560;9.986;2022-12-18T11:25:54;0.30;99.90
12335;DHT22;6233;51.560;9.986;2022-12-18T11:29:27;0.20;99.90
12335;DHT22;6233;51.560;9.986;2022-12-18T11:32:34;0.10;99.90
12335;DHT22;6233;51.560;9.986;2022-12-18T11:35:53;0.00;99.90
12335;DHT22;6233;51.560;9.986;2022-12-18T11:38:59;0.00;99.90
12335;DHT22;6233;51.560;9.986;2022-12-18T11:42:18;-0.10;99.90
12335;DHT22;6233;51.560;9.986;2022-12-18T11:45:30;-0.10;99.90
12335;DHT22;6233;51.560;9.986;2022-12-18T11:48:43;-0.10;99.90
12335;DHT22;6233;51.560;9.986;2022-12-18T11:51:58;-0.10;99.90
12335;DHT22;6233;51.560;9.986;2022-12-18T11:55:10;-0.20;99.90
12335;DHT22;6233;51.560;9.986;2022-12-18T12:04:48;-0.20;99.90
12335;DHT22;6233;51.560;9.986;2022-12-18T12:14:31;-0.30;99.90
12335;DHT22;6233;51.560;9.986;2022-12-18T12:31:45;-0.50;99.90
12335;DHT22;6233;51.560;9.986;2022-12-18T12:41:52;-0.40;99.90
12335;DHT22;6233;51.560;9.986;2022-12-18T12:45:22;-0.60;99.90
12335;DHT22;6233;51.560;9.986;2022-12-18T12:48:36;-0.80;99.90
12335;DHT22;6233;51.560;9.986;2022-12-18T12:51:43;-0.90;99.90
12335;DHT22;6233;51.560;9.986;2022-12-18T12:54:46;-1.10;99.90
12335;DHT22;6233;51.560;9.986;2022-12-18T13:10:56;-1.20;99.90
12335;DHT22;6233;51.560;9.986;2022-12-18T13:14:28;-1.30;99.90
12335;DHT22;6233;51.560;9.986;2022-12-18T13:17:31;-1.40;99.90
12335;DHT22;6233;51.560;9.986;2022-12-18T13:23:39;-1.50;99.90
12335;DHT22;6233;51.560;9.986;2022-12-18T13:26:42;-1.50;99.90
12335;DHT22;6233;51.560;9.986;2022-12-18T13:29:45;-1.40;99.90
12335;DHT22;6233;51.560;9.986;2022-12-18T13:32:48;-1.40;99.90
12335;DHT22;6233;51.560;9.986;2022-12-18T13:36:44;-1.40;99.90
12335;DHT22;6233;51.560;9.986;2022-12-18T13:39:38;-1.40;99.90
12335;DHT22;6233;51.560;9.986;2022-12-18T13:42:40;-1.50;99.90
12335;DHT22;6233;51.560;9.986;2022-12-18T13:49:27;-1.50;99.90
12335;DHT22;6233;51.560;9.986;2022-12-18T13:52:36;-1.60;99.90
12335;DHT22;6233;51.560;9.986;2022-12-18T13:55:44;-1.60;99.90
12335;DHT22;6233;51.560;9.986;2022-12-18T13:59:13;-1.60;99.90
12335;DHT22;6233;51.560;9.986;2022-12-18T14:02:18;-1.70;99.90
12335;DHT22;6233;51.560;9.986;2022-12-18T14:05:32;-1.60;99.90
12335;DHT22;6233;51.560;9.986;2022-12-18T14:08:38;-1.60;99.90
12335;DHT22;6233;51.560;9.986;2022-12-18T14:11:46;-1.60;99.90
12335;DHT22;6233;51.560;9.986;2022-12-18T14:14:51;-1.40;99.90
12335;DHT22;6233;51.560;9.986;2022-12-18T14:18:01;-1.40;99.90
12335;DHT22;6233;51.560;9.986;2022-12-18T14:21:04;-1.50;99.90
12335;DHT22;6233;51.560;9.986;2022-12-18T14:24:18;-1.60;99.90
12335;DHT22;6233;51.560;9.986;2022-12-18T14:27:24;-1.70;99.90
12335;DHT22;6233;51.560;9.986;2022-12-18T14:30:29;-1.70;99.90
12335;DHT22;6233;51.560;9.986;2022-12-18T14:33:31;-1.70;99.90
12335;DHT22;6233;51.560;9.986;2022-12-18T14:36:33;-1.80;99.90
12335;DHT22;6233;51.560;9.986;2022-12-18T14:39:34;-1.90;99.90
12335;DHT22;6233;51.560;9.986;2022-12-18T14:42:36;-2.00;99.90
12335;DHT22;6233;51.560;9.986;2022-12-18T14:45:45;-2.10;99.90
12335;DHT22;6233;51.560;9.986;2022-12-18T14:48:48;-2.10;99.90
12335;DHT22;6233;51.560;9.986;2022-12-18T14:51:55;-2.00;99.90
12335;DHT22;6233;51.560;9.986;2022-12-18T14:54:57;-2.00;99.90
12335;DHT22;6233;51.560;9.986;2022-12-18T14:57:59;-2.00;99.90
12335;DHT22;6233;51.560;9.986;2022-12-18T15:01:01;-2.10;99.90
12335;DHT22;6233;51.560;9.986;2022-12-18T15:04:05;-2.00;99.90
12335;DHT22;6233;51.560;9.986;2022-12-18T15:07:24;-1.90;99.90
12335;DHT22;6233;51.560;9.986;2022-12-18T15:13:29;-1.90;99.90
12335;DHT22;6233;51.560;9.986;2022-12-18T15:16:30;-1.80;99.90
12335;DHT22;6233;51.560;9.986;2022-12-18T15:19:39;-1.80;99.90
12335;DHT22;6233;51.560;9.986;2022-12-18T15:22:43;-1.80;99.90
12335;DHT22;6233;51.560;9.986;2022-12-18T15:25:58;-1.80;99.90
12335;DHT22;6233;51.560;9.986;2022-12-18T15:29:00;-1.70;99.90
12335;DHT22;6233;51.560;9.986;2022-12-18T15:32:18;-1.70;99.90
12335;DHT22;6233;51.560;9.986;2022-12-18T15:35:24;-1.70;99.90
12335;DHT22;6233;51.560;9.986;2022-12-18T15:38:27;-1.80;99.90
12335;DHT22;6233;51.560;9.986;2022-12-18T15:41:32;-1.80;99.90
12335;DHT22;6233;51.560;9.986;2022-12-18T15:44:36;-1.90;99.90
12335;DHT22;6233;51.560;9.986;2022-12-18T15:47:39;-1.80;99.90
12335;DHT22;6233;51.560;9.986;2022-12-18T15:50:41;-1.80;99.90
12335;DHT22;6233;51.560;9.986;2022-12-18T15:53:43;-1.90;99.90
12335;DHT22;6233;51.560;9.986;2022-12-18T15:56:45;-1.90;99.90
12335;DHT22;6233;51.560;9.986;2022-12-18T16:00:06;-1.90;99.90
12335;DHT22;6233;51.560;9.986;2022-12-18T16:03:08;-2.00;99.90
12335;DHT22;6233;51.560;9.986;2022-12-18T16:06:11;-1.90;99.90
12335;DHT22;6233;51.560;9.986;2022-12-18T16:09:12;-1.90;99.90
12335;DHT22;6233;51.560;9.986;2022-12-18T16:12:21;-1.90;99.90
12335;DHT22;6233;51.560;9.986;2022-12-18T16:15:23;-1.90;99.90
12335;DHT22;6233;51.560;9.986;2022-12-18T16:18:25;-2.00;99.90
12335;DHT22;6233;51.560;9.986;2022-12-18T16:21:27;-1.90;99.90
12335;DHT22;6233;51.560;9.986;2022-12-18T16:24:34;-1.90;99.90
12335;DHT22;6233;51.560;9.986;2022-12-18T16:27:37;-1.80;99.90
12335;DHT22;6233;51.560;9.986;2022-12-18T16:30:39;-1.80;99.90
12335;DHT22;6233;51.560;9.986;2022-12-18T16:33:41;-1.80;99.90
12335;DHT22;6233;51.560;9.986;2022-12-18T16:36:44;-1.80;99.90
12335;DHT22;6233;51.560;9.986;2022-12-18T16:39:46;-1.80;99.90
12335;DHT22;6233;51.560;9.986;2022-12-18T16:42:47;-1.80;99.90
12335;DHT22;6233;51.560;9.986;2022-12-18T16:45:51;-1.70;99.90
12335;DHT22;6233;51.560;9.986;2022-12-18T16:48:53;-1.70;99.90
12335;DHT22;6233;51.560;9.986;2022-12-18T16:51:55;-1.70;99.90
12335;DHT22;6233;51.560;9.986;2022-12-18T16:54:57;-1.70;99.90
12335;DHT22;6233;51.560;9.986;2022-12-18T16:57:59;-1.70;99.90
12335;DHT22;6233;51.560;9.986;2022-12-18T17:01:00;-1.70;99.90
12335;DHT22;6233;51.560;9.986;2022-12-18T17:04:05;-1.80;99.90
12335;DHT22;6233;51.560;9.986;2022-12-18T17:07:07;-1.80;99.90
12335;DHT22;6233;51.560;9.986;2022-12-18T17:10:09;-1.80;99.90
12335;DHT22;6233;51.560;9.986;2022-12-18T17:13:11;-1.80;99.90
12335;DHT22;6233;51.560;9.986;2022-12-18T17:16:13;-1.80;99.90
12335;DHT22;6233;51.560;9.986;2022-12-18T17:19:14;-1.70;99.90
12335;DHT22;6233;51.560;9.986;2022-12-18T17:22:18;-1.60;99.90
12335;DHT22;6233;51.560;9.986;2022-12-18T17:25:20;-1.70;99.90
12335;DHT22;6233;51.560;9.986;2022-12-18T17:28:25;-1.70;99.90
12335;DHT22;6233;51.560;9.986;2022-12-18T17:31:28;-1.70;99.90
12335;DHT22;6233;51.560;9.986;2022-12-18T17:34:30;-1.70;99.90
12335;DHT22;6233;51.560;9.986;2022-12-18T17:37:32;-1.80;99.90
12335;DHT22;6233;51.560;9.986;2022-12-18T17:40:34;-1.70;99.90
12335;DHT22;6233;51.560;9.986;2022-12-18T17:43:37;-1.70;99.90
12335;DHT22;6233;51.560;9.986;2022-12-18T17:46:49;-1.70;99.90
12335;DHT22;6233;51.560;9.986;2022-12-18T17:49:51;-1.80;99.90
12335;DHT22;6233;51.560;9.986;2022-12-18T17:52:57;-1.70;99.90
12335;DHT22;6233;51.560;9.986;2022-12-18T17:56:00;-1.70;99.90
12335;DHT22;6233;51.560;9.986;2022-12-18T17:59:02;-1.80;99.90
12335;DHT22;6233;51.560;9.986;2022-12-18T18:02:04;-1.70;99.90
12335;DHT22;6233;51.560;9.986;2022-12-18T18:05:06;-1.70;99.90
12335;DHT22;6233;51.560;9.986;2022-12-18T18:08:11;-1.70;99.90
12335;DHT22;6233;51.560;9.986;2022-12-18T18:11:16;-1.80;99.90
12335;DHT22;6233;51.560;9.986;2022-12-18T18:14:37;-1.70;99.90
12335;DHT22;6233;51.560;9.986;2022-12-18T18:17:39;-1.70;99.90
12335;DHT22;6233;51.560;9.986;2022-12-18T18:20:40;-1.70;99.90
12335;DHT22;6233;51.560;9.986;2022-12-18T18:23:42;-1.60;99.90
12335;DHT22;6233;51.560;9.986;2022-12-18T18:26:46;-1.60;99.90
12335;DHT22;6233;51.560;9.986;2022-12-18T18:29:48;-1.70;99.90
12335;DHT22;6233;51.560;9.986;2022-12-18T18:32:51;-1.70;99.90
12335;DHT22;6233;51.560;9.986;2022-12-18T18:35:53;-1.70;99.90
12335;DHT22;6233;51.560;9.986;2022-12-18T18:38:58;-1.60;99.90
12335;DHT22;6233;51.560;9.986;2022-12-18T18:42:01;-1.60;99.90
12335;DHT22;6233;51.560;9.986;2022-12-18T18:45:03;-1.60;99.90
12335;DHT22;6233;51.560;9.986;2022-12-18T18:48:05;-1.50;99.90
12335;DHT22;6233;51.560;9.986;2022-12-18T18:51:12;-1.60;99.90
12335;DHT22;6233;51.560;9.986;2022-12-18T18:54:22;-1.60;99.90
12335;DHT22;6233;51.560;9.986;2022-12-18T18:57:24;-1.60;99.90
12335;DHT22;6233;51.560;9.986;2022-12-18T19:00:31;-1.70;99.90
12335;DHT22;6233;51.560;9.986;2022-12-18T19:03:33;-1.60;99.90
12335;DHT22;6233;51.560;9.986;2022-12-18T19:06:36;-1.60;99.90
12335;DHT22;6233;51.560;9.986;2022-12-18T19:09:39;-1.60;99.90
12335;DHT22;6233;51.560;9.986;2022-12-18T19:12:40;-1.50;99.90
12335;DHT22;6233;51.560;9.986;2022-12-18T19:16:07;-1.50;99.90
12335;DHT22;6233;51.560;9.986;2022-12-18T19:19:12;-1.50;99.90
12335;DHT22;6233;51.560;9.986;2022-12-18T19:22:14;-1.60;99.90
12335;DHT22;6233;51.560;9.986;2022-12-18T19:25:16;-1.50;99.90
12335;DHT22;6233;51.560;9.986;2022-12-18T19:28:21;-1.50;99.90
12335;DHT22;6233;51.560;9.986;2022-12-18T19:31:26;-1.50;99.90
12335;DHT22;6233;51.560;9.986;2022-12-18T19:34:36;-1.50;99.90
12335;DHT22;6233;51.560;9.986;2022-12-18T19:37:38;-1.40;99.90
12335;DHT22;6233;51.560;9.986;2022-12-18T19:40:40;-1.40;99.90
12335;DHT22;6233;51.560;9.986;2022-12-18T19:43:42;-1.40;99.90
12335;DHT22;6233;51.560;9.986;2022-12-18T19:46:45;-1.40;99.90
12335;DHT22;6233;51.560;9.986;2022-12-18T19:49:50;-1.40;99.90
12335;DHT22;6233;51.560;9.986;2022-12-18T19:52:51;-1.40;99.90
12335;DHT22;6233;51.560;9.986;2022-12-18T19:55:53;-1.40;99.90
12335;DHT22;6233;51.560;9.986;2022-12-18T19:58:59;-1.40;99.90
12335;DHT22;6233;51.560;9.986;2022-12-18T20:02:00;-1.50;99.90
12335;DHT22;6233;51.560;9.986;2022-12-18T20:05:05;-1.50;99.90
12335;DHT22;6233;51.560;9.986;2022-12-18T20:08:09;-1.50;99.90
12335;DHT22;6233;51.560;9.986;2022-12-18T20:11:10;-1.50;99.90
12335;DHT22;6233;51.560;9.986;2022-12-18T20:14:13;-1.40;99.90
12335;DHT22;6233;51.560;9.986;2022-12-18T20:17:23;-1.40;99.90
12335;DHT22;6233;51.560;9.986;2022-12-18T20:20:25;-1.30;99.90
12335;DHT22;6233;51.560;9.986;2022-12-18T20:23:30;-1.40;99.90
12335;DHT22;6233;51.560;9.986;2022-12-18T20:26:35;-1.40;99.90
12335;DHT22;6233;51.560;9.986;2022-12-18T20:29:37;-1.30;99.90
12335;DHT22;6233;51.560;9.986;2022-12-18T20:32:39;-1.40;99.90
12335;DHT22;6233;51.560;9.986;2022-12-18T20:35:40;-1.30;99.90
12335;DHT22;6233;51.560;9.986;2022-12-18T20:38:43;-1.30;99.90
12335;DHT22;6233;51.560;9.986;2022-12-18T20:41:45;-1.30;99.90
12335;DHT22;6233;51.560;9.986;2022-12-18T20:44:47;-1.30;99.90
12335;DHT22;6233;51.560;9.986;2022-12-18T20:47:53;-1.30;99.90
12335;DHT22;6233;51.560;9.986;2022-12-18T20:50:59;-1.30;99.90
12335;DHT22;6233;51.560;9.986;2022-12-18T20:54:09;-1.30;99.90
12335;DHT22;6233;51.560;9.986;2022-12-18T20:57:13;-1.20;99.90
12335;DHT22;6233;51.560;9.986;2022-12-18T21:00:15;-1.20;99.90
12335;DHT22;6233;51.560;9.986;2022-12-18T21:03:21;-1.10;99.90
12335;DHT22;6233;51.560;9.986;2022-12-18T21:06:23;-1.20;99.90
12335;DHT22;6233;51.560;9.986;2022-12-18T21:09:25;-1.30;99.90
12335;DHT22;6233;51.560;9.986;2022-12-18T21:12:27;-1.30;99.90
12335;DHT22;6233;51.560;9.986;2022-12-18T21:15:45;-1.30;99.90
12335;DHT22;6233;51.560;9.986;2022-12-18T21:18:50;-1.20;99.90
12335;DHT22;6233;51.560;9.986;2022-12-18T21:21:59;-1.20;99.90
12335;DHT22;6233;51.560;9.986;2022-12-18T21:25:02;-1.20;99.90